Terminal Aerodrome Forecast
Issued by NWS Wichita, KS

Home | Current Version | Previous Version | Text Only | Print | Product List | Glossary On
Versions: 1 2 3 4 5 6 7 8 9 10 11 12 13
000
FTUS43 KICT 050520
TAFICT
TAF
KICT 050520Z 0506/0606 16010KT P6SM SCT080 BKN250
     FM051500 16015G22KT P6SM SCT050 BKN150
     FM060300 17015KT P6SM VCTS SCT050CB BKN080=

USA.gov is the U.S. government's official web portal to all federal, state and local government web resources and services.